sensor_id;sensor_type;location;lat;lon;timestamp;P1;durP1;ratioP1;P2;durP2;ratioP2
60344;SDS011;46188;52.324;8.032;2022-12-18T00:04:02;36.67;;;18.35;;
60344;SDS011;46188;52.324;8.032;2022-12-18T00:06:32;31.40;;;15.32;;
60344;SDS011;46188;52.324;8.032;2022-12-18T00:08:59;28.25;;;14.32;;
60344;SDS011;46188;52.324;8.032;2022-12-18T00:11:27;32.30;;;16.05;;
60344;SDS011;46188;52.324;8.032;2022-12-18T00:13:54;24.58;;;13.43;;
60344;SDS011;46188;52.324;8.032;2022-12-18T00:16:22;28.42;;;15.43;;
60344;SDS011;46188;52.324;8.032;2022-12-18T00:18:50;28.13;;;14.27;;
60344;SDS011;46188;52.324;8.032;2022-12-18T00:21:16;27.52;;;13.02;;
60344;SDS011;46188;52.324;8.032;2022-12-18T00:23:43;21.40;;;11.63;;
60344;SDS011;46188;52.324;8.032;2022-12-18T00:26:11;21.60;;;12.13;;
60344;SDS011;46188;52.324;8.032;2022-12-18T00:28:42;26.25;;;12.68;;
60344;SDS011;46188;52.324;8.032;2022-12-18T00:31:09;24.48;;;11.55;;
60344;SDS011;46188;52.324;8.032;2022-12-18T00:33:37;25.63;;;12.40;;
60344;SDS011;46188;52.324;8.032;2022-12-18T00:36:07;22.95;;;12.25;;
60344;SDS011;46188;52.324;8.032;2022-12-18T00:38:38;34.03;;;13.63;;
60344;SDS011;46188;52.324;8.032;2022-12-18T00:41:05;27.75;;;12.55;;
60344;SDS011;46188;52.324;8.032;2022-12-18T00:43:33;27.77;;;12.90;;
60344;SDS011;46188;52.324;8.032;2022-12-18T00:45:59;36.10;;;14.70;;
60344;SDS011;46188;52.324;8.032;2022-12-18T00:48:24;28.02;;;13.88;;
60344;SDS011;46188;52.324;8.032;2022-12-18T00:50:50;31.52;;;15.23;;
60344;SDS011;46188;52.324;8.032;2022-12-18T00:53:16;26.10;;;13.68;;
60344;SDS011;46188;52.324;8.032;2022-12-18T00:55:42;27.00;;;13.15;;
60344;SDS011;46188;52.324;8.032;2022-12-18T00:58:08;25.27;;;13.13;;
60344;SDS011;46188;52.324;8.032;2022-12-18T01:00:35;21.85;;;11.55;;
60344;SDS011;46188;52.324;8.032;2022-12-18T01:03:01;24.77;;;11.93;;
60344;SDS011;46188;52.324;8.032;2022-12-18T01:05:27;20.98;;;10.48;;
60344;SDS011;46188;52.324;8.032;2022-12-18T01:07:52;26.20;;;12.13;;
60344;SDS011;46188;52.324;8.032;2022-12-18T01:10:18;23.73;;;12.10;;
60344;SDS011;46188;52.324;8.032;2022-12-18T01:12:43;23.02;;;13.07;;
60344;SDS011;46188;52.324;8.032;2022-12-18T01:15:09;22.20;;;11.13;;
60344;SDS011;46188;52.324;8.032;2022-12-18T01:17:36;21.00;;;10.65;;
60344;SDS011;46188;52.324;8.032;2022-12-18T01:20:02;19.20;;;9.98;;
60344;SDS011;46188;52.324;8.032;2022-12-18T01:22:28;19.00;;;10.88;;
60344;SDS011;46188;52.324;8.032;2022-12-18T01:24:54;21.98;;;9.20;;
60344;SDS011;46188;52.324;8.032;2022-12-18T01:27:19;21.38;;;9.05;;
60344;SDS011;46188;52.324;8.032;2022-12-18T01:29:45;20.60;;;10.10;;
60344;SDS011;46188;52.324;8.032;2022-12-18T01:32:10;15.63;;;8.80;;
60344;SDS011;46188;52.324;8.032;2022-12-18T01:34:36;18.60;;;10.95;;
60344;SDS011;46188;52.324;8.032;2022-12-18T01:37:02;21.58;;;10.48;;
60344;SDS011;46188;52.324;8.032;2022-12-18T01:39:29;21.63;;;8.68;;
60344;SDS011;46188;52.324;8.032;2022-12-18T01:41:54;12.60;;;7.30;;
60344;SDS011;46188;52.324;8.032;2022-12-18T01:50:18;14.35;;;7.75;;
60344;SDS011;46188;52.324;8.032;2022-12-18T01:52:53;13.82;;;6.95;;
60344;SDS011;46188;52.324;8.032;2022-12-18T01:55:22;14.13;;;6.80;;
60344;SDS011;46188;52.324;8.032;2022-12-18T01:57:51;14.65;;;7.60;;
60344;SDS011;46188;52.324;8.032;2022-12-18T02:00:19;14.85;;;7.43;;
60344;SDS011;46188;52.324;8.032;2022-12-18T02:02:46;13.68;;;7.40;;
60344;SDS011;46188;52.324;8.032;2022-12-18T02:05:14;14.40;;;7.68;;
60344;SDS011;46188;52.324;8.032;2022-12-18T02:07:59;13.73;;;6.60;;
60344;SDS011;46188;52.324;8.032;2022-12-18T02:10:32;12.55;;;6.80;;
60344;SDS011;46188;52.324;8.032;2022-12-18T02:13:20;20.40;;;8.52;;
60344;SDS011;46188;52.324;8.032;2022-12-18T02:18:53;13.43;;;6.95;;
60344;SDS011;46188;52.324;8.032;2022-12-18T02:29:22;16.00;;;6.60;;
60344;SDS011;46188;52.324;8.032;2022-12-18T02:31:53;12.85;;;5.35;;
60344;SDS011;46188;52.324;8.032;2022-12-18T02:34:27;11.82;;;6.30;;
60344;SDS011;46188;52.324;8.032;2022-12-18T02:36:56;14.43;;;7.75;;
60344;SDS011;46188;52.324;8.032;2022-12-18T02:39:24;13.88;;;7.20;;
60344;SDS011;46188;52.324;8.032;2022-12-18T02:41:52;14.15;;;6.70;;
60344;SDS011;46188;52.324;8.032;2022-12-18T02:44:18;12.23;;;6.70;;
60344;SDS011;46188;52.324;8.032;2022-12-18T02:52:07;13.25;;;6.85;;
60344;SDS011;46188;52.324;8.032;2022-12-18T03:00:28;14.18;;;6.45;;
60344;SDS011;46188;52.324;8.032;2022-12-18T03:03:05;11.30;;;6.53;;
60344;SDS011;46188;52.324;8.032;2022-12-18T03:08:30;11.43;;;6.32;;
60344;SDS011;46188;52.324;8.032;2022-12-18T03:11:05;14.20;;;7.47;;
60344;SDS011;46188;52.324;8.032;2022-12-18T03:13:38;13.07;;;7.40;;
60344;SDS011;46188;52.324;8.032;2022-12-18T03:16:10;15.05;;;7.93;;
60344;SDS011;46188;52.324;8.032;2022-12-18T03:18:49;17.65;;;8.07;;
60344;SDS011;46188;52.324;8.032;2022-12-18T03:21:21;13.93;;;6.80;;
60344;SDS011;46188;52.324;8.032;2022-12-18T03:23:53;10.98;;;6.13;;
60344;SDS011;46188;52.324;8.032;2022-12-18T03:26:22;17.58;;;7.18;;
60344;SDS011;46188;52.324;8.032;2022-12-18T03:28:52;15.32;;;6.85;;
60344;SDS011;46188;52.324;8.032;2022-12-18T03:31:22;11.88;;;5.97;;
60344;SDS011;46188;52.324;8.032;2022-12-18T03:33:54;15.38;;;7.43;;
60344;SDS011;46188;52.324;8.032;2022-12-18T03:36:22;12.20;;;6.63;;
60344;SDS011;46188;52.324;8.032;2022-12-18T03:38:49;11.73;;;6.22;;
60344;SDS011;46188;52.324;8.032;2022-12-18T03:41:28;12.35;;;6.60;;
60344;SDS011;46188;52.324;8.032;2022-12-18T03:52:28;13.68;;;6.05;;
60344;SDS011;46188;52.324;8.032;2022-12-18T03:55:01;12.13;;;5.72;;
60344;SDS011;46188;52.324;8.032;2022-12-18T03:57:30;15.23;;;7.22;;
60344;SDS011;46188;52.324;8.032;2022-12-18T04:00:00;16.13;;;7.07;;
60344;SDS011;46188;52.324;8.032;2022-12-18T04:02:29;13.57;;;7.15;;
60344;SDS011;46188;52.324;8.032;2022-12-18T04:04:58;16.58;;;7.30;;
60344;SDS011;46188;52.324;8.032;2022-12-18T04:07:26;12.05;;;6.55;;
60344;SDS011;46188;52.324;8.032;2022-12-18T04:09:53;12.38;;;7.20;;
60344;SDS011;46188;52.324;8.032;2022-12-18T04:12:24;13.20;;;7.28;;
60344;SDS011;46188;52.324;8.032;2022-12-18T04:14:51;15.95;;;8.00;;
60344;SDS011;46188;52.324;8.032;2022-12-18T04:17:16;19.98;;;8.18;;
60344;SDS011;46188;52.324;8.032;2022-12-18T04:19:42;15.07;;;8.20;;
60344;SDS011;46188;52.324;8.032;2022-12-18T04:22:09;17.02;;;8.15;;
60344;SDS011;46188;52.324;8.032;2022-12-18T04:24:35;18.02;;;8.50;;
60344;SDS011;46188;52.324;8.032;2022-12-18T04:27:01;17.00;;;8.68;;
60344;SDS011;46188;52.324;8.032;2022-12-18T04:29:27;21.63;;;8.38;;
60344;SDS011;46188;52.324;8.032;2022-12-18T04:31:53;17.67;;;7.90;;
60344;SDS011;46188;52.324;8.032;2022-12-18T04:34:19;15.82;;;7.85;;
60344;SDS011;46188;52.324;8.032;2022-12-18T04:36:45;17.45;;;8.32;;
60344;SDS011;46188;52.324;8.032;2022-12-18T04:39:11;16.92;;;8.15;;
60344;SDS011;46188;52.324;8.032;2022-12-18T04:41:36;13.32;;;7.10;;
60344;SDS011;46188;52.324;8.032;2022-12-18T04:44:02;19.40;;;8.10;;
60344;SDS011;46188;52.324;8.032;2022-12-18T04:46:28;17.35;;;9.65;;
60344;SDS011;46188;52.324;8.032;2022-12-18T04:48:53;17.63;;;8.10;;
60344;SDS011;46188;52.324;8.032;2022-12-18T04:51:19;17.67;;;9.02;;
60344;SDS011;46188;52.324;8.032;2022-12-18T04:53:44;17.08;;;8.73;;
60344;SDS011;46188;52.324;8.032;2022-12-18T04:56:11;17.33;;;8.57;;
60344;SDS011;46188;52.324;8.032;2022-12-18T04:58:39;18.02;;;8.77;;
60344;SDS011;46188;52.324;8.032;2022-12-18T05:01:06;21.88;;;10.50;;
60344;SDS011;46188;52.324;8.032;2022-12-18T05:03:35;19.20;;;8.63;;
60344;SDS011;46188;52.324;8.032;2022-12-18T05:06:01;21.33;;;8.63;;
60344;SDS011;46188;52.324;8.032;2022-12-18T05:08:27;17.52;;;8.95;;
60344;SDS011;46188;52.324;8.032;2022-12-18T05:11:00;17.85;;;9.15;;
60344;SDS011;46188;52.324;8.032;2022-12-18T05:13:30;16.15;;;9.43;;
60344;SDS011;46188;52.324;8.032;2022-12-18T05:15:56;20.73;;;8.23;;
60344;SDS011;46188;52.324;8.032;2022-12-18T05:18:22;17.52;;;7.97;;
60344;SDS011;46188;52.324;8.032;2022-12-18T05:20:49;20.58;;;8.57;;
60344;SDS011;46188;52.324;8.032;2022-12-18T05:23:15;17.20;;;9.35;;
60344;SDS011;46188;52.324;8.032;2022-12-18T05:25:40;16.42;;;7.90;;
60344;SDS011;46188;52.324;8.032;2022-12-18T05:28:06;15.55;;;8.57;;
60344;SDS011;46188;52.324;8.032;2022-12-18T05:30:31;14.88;;;8.18;;
60344;SDS011;46188;52.324;8.032;2022-12-18T05:32:57;14.52;;;8.02;;
60344;SDS011;46188;52.324;8.032;2022-12-18T05:35:22;18.75;;;7.72;;
60344;SDS011;46188;52.324;8.032;2022-12-18T05:37:48;17.15;;;7.35;;
60344;SDS011;46188;52.324;8.032;2022-12-18T05:40:13;20.55;;;9.48;;
60344;SDS011;46188;52.324;8.032;2022-12-18T05:42:39;17.83;;;8.50;;
60344;SDS011;46188;52.324;8.032;2022-12-18T05:45:05;16.90;;;7.82;;
60344;SDS011;46188;52.324;8.032;2022-12-18T05:47:31;19.35;;;9.52;;
60344;SDS011;46188;52.324;8.032;2022-12-18T05:49:56;17.00;;;9.00;;
60344;SDS011;46188;52.324;8.032;2022-12-18T05:52:22;19.42;;;9.13;;
60344;SDS011;46188;52.324;8.032;2022-12-18T05:54:48;17.17;;;8.70;;
60344;SDS011;46188;52.324;8.032;2022-12-18T05:57:13;13.85;;;7.65;;
60344;SDS011;46188;52.324;8.032;2022-12-18T05:59:39;13.85;;;8.18;;
60344;SDS011;46188;52.324;8.032;2022-12-18T06:02:04;15.10;;;8.43;;
60344;SDS011;46188;52.324;8.032;2022-12-18T06:04:30;16.60;;;8.48;;
60344;SDS011;46188;52.324;8.032;2022-12-18T06:06:56;18.05;;;9.23;;
60344;SDS011;46188;52.324;8.032;2022-12-18T06:09:21;18.95;;;9.75;;
60344;SDS011;46188;52.324;8.032;2022-12-18T06:11:46;20.73;;;8.95;;
60344;SDS011;46188;52.324;8.032;2022-12-18T06:14:12;20.48;;;8.65;;
60344;SDS011;46188;52.324;8.032;2022-12-18T06:16:38;19.20;;;10.07;;
60344;SDS011;46188;52.324;8.032;2022-12-18T06:19:03;17.95;;;7.47;;
60344;SDS011;46188;52.324;8.032;2022-12-18T06:21:30;18.00;;;8.07;;
60344;SDS011;46188;52.324;8.032;2022-12-18T06:23:57;15.07;;;9.70;;
60344;SDS011;46188;52.324;8.032;2022-12-18T06:26:23;20.92;;;8.88;;
60344;SDS011;46188;52.324;8.032;2022-12-18T06:28:49;17.95;;;8.13;;
60344;SDS011;46188;52.324;8.032;2022-12-18T06:31:14;20.02;;;7.72;;
60344;SDS011;46188;52.324;8.032;2022-12-18T06:33:40;16.30;;;7.68;;
60344;SDS011;46188;52.324;8.032;2022-12-18T06:36:07;14.52;;;6.70;;
60344;SDS011;46188;52.324;8.032;2022-12-18T06:38:35;14.20;;;7.55;;
60344;SDS011;46188;52.324;8.032;2022-12-18T06:41:12;17.10;;;8.27;;
60344;SDS011;46188;52.324;8.032;2022-12-18T06:43:42;17.65;;;7.00;;
60344;SDS011;46188;52.324;8.032;2022-12-18T06:46:08;13.05;;;6.88;;
60344;SDS011;46188;52.324;8.032;2022-12-18T06:48:35;14.70;;;7.63;;
60344;SDS011;46188;52.324;8.032;2022-12-18T06:51:00;17.33;;;7.75;;
60344;SDS011;46188;52.324;8.032;2022-12-18T06:53:26;16.90;;;7.03;;
60344;SDS011;46188;52.324;8.032;2022-12-18T06:55:52;18.17;;;7.70;;
60344;SDS011;46188;52.324;8.032;2022-12-18T06:58:18;15.27;;;6.57;;
60344;SDS011;46188;52.324;8.032;2022-12-18T07:00:43;12.90;;;6.93;;
60344;SDS011;46188;52.324;8.032;2022-12-18T07:03:09;18.92;;;8.57;;
60344;SDS011;46188;52.324;8.032;2022-12-18T07:05:39;14.30;;;7.07;;
60344;SDS011;46188;52.324;8.032;2022-12-18T07:08:05;15.00;;;6.88;;
60344;SDS011;46188;52.324;8.032;2022-12-18T07:10:31;18.50;;;6.80;;
60344;SDS011;46188;52.324;8.032;2022-12-18T07:12:56;20.63;;;7.50;;
60344;SDS011;46188;52.324;8.032;2022-12-18T07:15:22;20.05;;;7.50;;
60344;SDS011;46188;52.324;8.032;2022-12-18T07:17:47;16.98;;;7.13;;
60344;SDS011;46188;52.324;8.032;2022-12-18T07:20:12;16.63;;;8.13;;
60344;SDS011;46188;52.324;8.032;2022-12-18T07:22:38;16.55;;;8.18;;
60344;SDS011;46188;52.324;8.032;2022-12-18T07:25:04;14.75;;;7.43;;
60344;SDS011;46188;52.324;8.032;2022-12-18T07:27:29;19.80;;;8.52;;
60344;SDS011;46188;52.324;8.032;2022-12-18T07:29:55;16.08;;;8.48;;
60344;SDS011;46188;52.324;8.032;2022-12-18T07:32:20;20.90;;;8.15;;
60344;SDS011;46188;52.324;8.032;2022-12-18T07:34:46;15.90;;;8.32;;
60344;SDS011;46188;52.324;8.032;2022-12-18T07:37:11;25.38;;;8.80;;
60344;SDS011;46188;52.324;8.032;2022-12-18T07:39:37;16.98;;;7.85;;
60344;SDS011;46188;52.324;8.032;2022-12-18T07:42:02;17.08;;;7.22;;
60344;SDS011;46188;52.324;8.032;2022-12-18T07:44:47;15.52;;;7.22;;
60344;SDS011;46188;52.324;8.032;2022-12-18T07:47:12;19.27;;;8.35;;
60344;SDS011;46188;52.324;8.032;2022-12-18T07:49:38;18.02;;;7.55;;
60344;SDS011;46188;52.324;8.032;2022-12-18T07:52:03;16.50;;;7.85;;
60344;SDS011;46188;52.324;8.032;2022-12-18T07:54:29;14.15;;;8.15;;
60344;SDS011;46188;52.324;8.032;2022-12-18T07:56:54;20.65;;;8.45;;
60344;SDS011;46188;52.324;8.032;2022-12-18T07:59:20;20.45;;;8.52;;
60344;SDS011;46188;52.324;8.032;2022-12-18T08:01:45;16.27;;;8.13;;
60344;SDS011;46188;52.324;8.032;2022-12-18T08:04:10;23.35;;;7.35;;
60344;SDS011;46188;52.324;8.032;2022-12-18T08:06:36;28.67;;;8.20;;
60344;SDS011;46188;52.324;8.032;2022-12-18T08:09:02;15.88;;;7.72;;
60344;SDS011;46188;52.324;8.032;2022-12-18T08:11:27;16.02;;;8.05;;
60344;SDS011;46188;52.324;8.032;2022-12-18T08:13:53;18.38;;;7.82;;
60344;SDS011;46188;52.324;8.032;2022-12-18T08:16:19;15.77;;;8.05;;
60344;SDS011;46188;52.324;8.032;2022-12-18T08:18:46;20.33;;;8.18;;
60344;SDS011;46188;52.324;8.032;2022-12-18T08:21:16;16.52;;;8.70;;
60344;SDS011;46188;52.324;8.032;2022-12-18T08:23:43;18.83;;;9.93;;
60344;SDS011;46188;52.324;8.032;2022-12-18T08:26:13;19.92;;;9.75;;
60344;SDS011;46188;52.324;8.032;2022-12-18T08:28:38;17.55;;;10.38;;
60344;SDS011;46188;52.324;8.032;2022-12-18T08:31:05;20.30;;;9.90;;
60344;SDS011;46188;52.324;8.032;2022-12-18T08:33:30;22.17;;;8.63;;
60344;SDS011;46188;52.324;8.032;2022-12-18T08:35:57;16.58;;;9.10;;
60344;SDS011;46188;52.324;8.032;2022-12-18T08:38:23;18.90;;;8.95;;
60344;SDS011;46188;52.324;8.032;2022-12-18T08:40:49;21.00;;;9.77;;
60344;SDS011;46188;52.324;8.032;2022-12-18T08:43:14;17.67;;;9.30;;
60344;SDS011;46188;52.324;8.032;2022-12-18T08:45:58;18.30;;;9.05;;
60344;SDS011;46188;52.324;8.032;2022-12-18T08:48:24;21.60;;;10.35;;
60344;SDS011;46188;52.324;8.032;2022-12-18T08:50:59;18.90;;;9.18;;
60344;SDS011;46188;52.324;8.032;2022-12-18T08:53:25;19.70;;;9.43;;
60344;SDS011;46188;52.324;8.032;2022-12-18T08:55:51;21.05;;;10.35;;
60344;SDS011;46188;52.324;8.032;2022-12-18T08:58:17;20.55;;;10.10;;
60344;SDS011;46188;52.324;8.032;2022-12-18T09:00:42;19.25;;;10.85;;
60344;SDS011;46188;52.324;8.032;2022-12-18T09:03:12;20.45;;;10.15;;
60344;SDS011;46188;52.324;8.032;2022-12-18T09:05:38;20.60;;;10.07;;
60344;SDS011;46188;52.324;8.032;2022-12-18T09:08:04;21.40;;;11.00;;
60344;SDS011;46188;52.324;8.032;2022-12-18T09:10:29;23.77;;;10.98;;
60344;SDS011;46188;52.324;8.032;2022-12-18T09:12:55;18.67;;;9.77;;
60344;SDS011;46188;52.324;8.032;2022-12-18T09:15:21;20.33;;;10.07;;
60344;SDS011;46188;52.324;8.032;2022-12-18T09:17:47;22.02;;;10.60;;
60344;SDS011;46188;52.324;8.032;2022-12-18T09:20:14;23.02;;;10.30;;
60344;SDS011;46188;52.324;8.032;2022-12-18T09:22:40;19.98;;;9.63;;
60344;SDS011;46188;52.324;8.032;2022-12-18T09:25:06;19.50;;;10.65;;
60344;SDS011;46188;52.324;8.032;2022-12-18T09:27:34;19.08;;;9.50;;
60344;SDS011;46188;52.324;8.032;2022-12-18T09:30:00;20.83;;;9.82;;
60344;SDS011;46188;52.324;8.032;2022-12-18T09:32:25;22.23;;;10.85;;
60344;SDS011;46188;52.324;8.032;2022-12-18T09:34:51;17.73;;;9.85;;
60344;SDS011;46188;52.324;8.032;2022-12-18T09:37:16;22.02;;;10.60;;
60344;SDS011;46188;52.324;8.032;2022-12-18T09:39:42;21.55;;;11.07;;
60344;SDS011;46188;52.324;8.032;2022-12-18T09:42:09;18.40;;;10.52;;
60344;SDS011;46188;52.324;8.032;2022-12-18T09:44:43;18.35;;;9.15;;
60344;SDS011;46188;52.324;8.032;2022-12-18T09:47:15;23.92;;;11.05;;
60344;SDS011;46188;52.324;8.032;2022-12-18T09:49:43;18.00;;;10.07;;
60344;SDS011;46188;52.324;8.032;2022-12-18T09:55:02;19.58;;;9.65;;
60344;SDS011;46188;52.324;8.032;2022-12-18T09:57:29;21.38;;;11.43;;
60344;SDS011;46188;52.324;8.032;2022-12-18T09:59:59;17.52;;;9.68;;
60344;SDS011;46188;52.324;8.032;2022-12-18T10:02:32;16.70;;;9.77;;
60344;SDS011;46188;52.324;8.032;2022-12-18T10:05:09;19.73;;;10.45;;
60344;SDS011;46188;52.324;8.032;2022-12-18T10:13:31;20.23;;;11.05;;
60344;SDS011;46188;52.324;8.032;2022-12-18T10:21:45;22.48;;;12.30;;
60344;SDS011;46188;52.324;8.032;2022-12-18T10:26:52;19.27;;;10.90;;
60344;SDS011;46188;52.324;8.032;2022-12-18T10:29:21;24.45;;;12.32;;
60344;SDS011;46188;52.324;8.032;2022-12-18T10:31:47;23.40;;;12.18;;
60344;SDS011;46188;52.324;8.032;2022-12-18T10:34:13;24.92;;;13.27;;
60344;SDS011;46188;52.324;8.032;2022-12-18T10:36:38;21.77;;;12.70;;
60344;SDS011;46188;52.324;8.032;2022-12-18T10:39:37;24.33;;;12.95;;
60344;SDS011;46188;52.324;8.032;2022-12-18T10:42:09;19.25;;;10.80;;
60344;SDS011;46188;52.324;8.032;2022-12-18T10:44:44;22.83;;;12.68;;
60344;SDS011;46188;52.324;8.032;2022-12-18T10:47:12;22.52;;;12.40;;
60344;SDS011;46188;52.324;8.032;2022-12-18T10:49:48;22.70;;;12.17;;
60344;SDS011;46188;52.324;8.032;2022-12-18T10:54:53;23.05;;;12.32;;
60344;SDS011;46188;52.324;8.032;2022-12-18T10:59:52;18.02;;;10.90;;
60344;SDS011;46188;52.324;8.032;2022-12-18T11:02:36;19.52;;;10.65;;
60344;SDS011;46188;52.324;8.032;2022-12-18T11:05:04;20.25;;;12.02;;
60344;SDS011;46188;52.324;8.032;2022-12-18T11:07:52;17.63;;;10.13;;
60344;SDS011;46188;52.324;8.032;2022-12-18T11:10:31;19.55;;;11.00;;
60344;SDS011;46188;52.324;8.032;2022-12-18T11:15:50;21.00;;;11.25;;
60344;SDS011;46188;52.324;8.032;2022-12-18T11:18:20;17.60;;;10.10;;
60344;SDS011;46188;52.324;8.032;2022-12-18T11:20:53;19.38;;;10.57;;
60344;SDS011;46188;52.324;8.032;2022-12-18T11:23:31;17.48;;;10.75;;
60344;SDS011;46188;52.324;8.032;2022-12-18T11:26:01;24.23;;;12.93;;
60344;SDS011;46188;52.324;8.032;2022-12-18T11:28:33;20.77;;;9.82;;
60344;SDS011;46188;52.324;8.032;2022-12-18T11:31:17;18.70;;;9.73;;
60344;SDS011;46188;52.324;8.032;2022-12-18T11:33:44;17.92;;;10.70;;
60344;SDS011;46188;52.324;8.032;2022-12-18T11:36:23;20.17;;;9.82;;
60344;SDS011;46188;52.324;8.032;2022-12-18T11:38:49;18.00;;;12.27;;
60344;SDS011;46188;52.324;8.032;2022-12-18T11:41:34;18.27;;;9.38;;
60344;SDS011;46188;52.324;8.032;2022-12-18T11:50:12;19.35;;;9.27;;
60344;SDS011;46188;52.324;8.032;2022-12-18T11:52:41;13.98;;;8.73;;
60344;SDS011;46188;52.324;8.032;2022-12-18T11:55:14;16.45;;;9.27;;
60344;SDS011;46188;52.324;8.032;2022-12-18T11:57:50;19.17;;;9.52;;
60344;SDS011;46188;52.324;8.032;2022-12-18T12:00:26;16.80;;;9.57;;
60344;SDS011;46188;52.324;8.032;2022-12-18T12:11:33;17.65;;;9.15;;
60344;SDS011;46188;52.324;8.032;2022-12-18T12:16:48;17.70;;;9.82;;
60344;SDS011;46188;52.324;8.032;2022-12-18T12:40:35;16.13;;;8.30;;
60344;SDS011;46188;52.324;8.032;2022-12-18T12:43:22;15.15;;;8.05;;
60344;SDS011;46188;52.324;8.032;2022-12-18T12:53:46;15.50;;;7.63;;
60344;SDS011;46188;52.324;8.032;2022-12-18T12:56:13;14.23;;;7.47;;
60344;SDS011;46188;52.324;8.032;2022-12-18T13:12:56;12.55;;;7.65;;
60344;SDS011;46188;52.324;8.032;2022-12-18T13:20:42;11.57;;;6.32;;
60344;SDS011;46188;52.324;8.032;2022-12-18T13:25:49;11.60;;;6.53;;
60344;SDS011;46188;52.324;8.032;2022-12-18T13:28:49;12.57;;;6.45;;
60344;SDS011;46188;52.324;8.032;2022-12-18T13:34:32;11.77;;;5.90;;
60344;SDS011;46188;52.324;8.032;2022-12-18T13:36:56;11.02;;;6.20;;
60344;SDS011;46188;52.324;8.032;2022-12-18T13:39:42;11.15;;;6.63;;
60344;SDS011;46188;52.324;8.032;2022-12-18T13:44:34;10.10;;;7.03;;
60344;SDS011;46188;52.324;8.032;2022-12-18T13:47:01;11.45;;;6.35;;
60344;SDS011;46188;52.324;8.032;2022-12-18T13:49:41;12.27;;;6.45;;
60344;SDS011;46188;52.324;8.032;2022-12-18T13:52:19;11.07;;;6.25;;
60344;SDS011;46188;52.324;8.032;2022-12-18T13:54:49;13.20;;;6.93;;
60344;SDS011;46188;52.324;8.032;2022-12-18T13:57:27;11.15;;;6.50;;
60344;SDS011;46188;52.324;8.032;2022-12-18T13:59:55;10.40;;;5.72;;
60344;SDS011;46188;52.324;8.032;2022-12-18T14:02:28;12.82;;;6.47;;
60344;SDS011;46188;52.324;8.032;2022-12-18T14:04:54;12.48;;;5.75;;
60344;SDS011;46188;52.324;8.032;2022-12-18T14:07:24;11.00;;;6.57;;
60344;SDS011;46188;52.324;8.032;2022-12-18T14:10:00;12.63;;;5.65;;
60344;SDS011;46188;52.324;8.032;2022-12-18T14:12:28;11.85;;;5.90;;
60344;SDS011;46188;52.324;8.032;2022-12-18T14:17:58;12.73;;;6.70;;
60344;SDS011;46188;52.324;8.032;2022-12-18T14:20:27;11.40;;;6.03;;
60344;SDS011;46188;52.324;8.032;2022-12-18T14:22:56;10.07;;;5.97;;
60344;SDS011;46188;52.324;8.032;2022-12-18T14:25:23;12.18;;;7.63;;
60344;SDS011;46188;52.324;8.032;2022-12-18T14:27:52;10.38;;;5.65;;
60344;SDS011;46188;52.324;8.032;2022-12-18T14:30:27;8.75;;;5.78;;
60344;SDS011;46188;52.324;8.032;2022-12-18T14:33:08;11.43;;;5.93;;
60344;SDS011;46188;52.324;8.032;2022-12-18T14:35:38;8.45;;;5.65;;
60344;SDS011;46188;52.324;8.032;2022-12-18T14:40:47;13.05;;;6.53;;
60344;SDS011;46188;52.324;8.032;2022-12-18T14:43:16;9.80;;;5.68;;
60344;SDS011;46188;52.324;8.032;2022-12-18T14:45:42;8.23;;;5.72;;
60344;SDS011;46188;52.324;8.032;2022-12-18T14:50:40;9.98;;;5.78;;
60344;SDS011;46188;52.324;8.032;2022-12-18T14:53:15;10.93;;;5.70;;
60344;SDS011;46188;52.324;8.032;2022-12-18T14:55:48;10.30;;;6.75;;
60344;SDS011;46188;52.324;8.032;2022-12-18T14:58:15;9.35;;;5.82;;
60344;SDS011;46188;52.324;8.032;2022-12-18T15:00:41;8.75;;;5.65;;
60344;SDS011;46188;52.324;8.032;2022-12-18T15:03:07;11.20;;;5.93;;
60344;SDS011;46188;52.324;8.032;2022-12-18T15:05:34;9.32;;;5.28;;
60344;SDS011;46188;52.324;8.032;2022-12-18T15:08:00;14.15;;;5.95;;
60344;SDS011;46188;52.324;8.032;2022-12-18T15:10:31;9.98;;;5.22;;
60344;SDS011;46188;52.324;8.032;2022-12-18T15:20:49;11.15;;;6.57;;
60344;SDS011;46188;52.324;8.032;2022-12-18T15:23:22;10.45;;;5.20;;
60344;SDS011;46188;52.324;8.032;2022-12-18T15:26:04;7.22;;;4.82;;
60344;SDS011;46188;52.324;8.032;2022-12-18T15:33:39;10.45;;;5.57;;
60344;SDS011;46188;52.324;8.032;2022-12-18T15:36:12;12.10;;;5.53;;
60344;SDS011;46188;52.324;8.032;2022-12-18T15:38:39;13.93;;;5.75;;
60344;SDS011;46188;52.324;8.032;2022-12-18T15:41:04;11.02;;;5.57;;
60344;SDS011;46188;52.324;8.032;2022-12-18T15:43:30;10.65;;;5.30;;
60344;SDS011;46188;52.324;8.032;2022-12-18T15:46:00;12.10;;;5.63;;
60344;SDS011;46188;52.324;8.032;2022-12-18T15:48:35;11.35;;;5.68;;
60344;SDS011;46188;52.324;8.032;2022-12-18T15:51:05;9.80;;;6.22;;
60344;SDS011;46188;52.324;8.032;2022-12-18T15:53:36;11.45;;;5.38;;
60344;SDS011;46188;52.324;8.032;2022-12-18T15:56:04;11.05;;;5.93;;
60344;SDS011;46188;52.324;8.032;2022-12-18T15:58:48;10.73;;;5.75;;
60344;SDS011;46188;52.324;8.032;2022-12-18T16:01:14;9.40;;;5.93;;
60344;SDS011;46188;52.324;8.032;2022-12-18T16:03:40;11.05;;;6.70;;
60344;SDS011;46188;52.324;8.032;2022-12-18T16:06:06;9.77;;;5.68;;
60344;SDS011;46188;52.324;8.032;2022-12-18T16:08:31;11.05;;;5.72;;
60344;SDS011;46188;52.324;8.032;2022-12-18T16:10:57;10.32;;;5.63;;
60344;SDS011;46188;52.324;8.032;2022-12-18T16:13:23;8.35;;;6.00;;
60344;SDS011;46188;52.324;8.032;2022-12-18T16:15:49;11.40;;;5.30;;
60344;SDS011;46188;52.324;8.032;2022-12-18T16:18:14;12.20;;;6.90;;
60344;SDS011;46188;52.324;8.032;2022-12-18T16:20:40;11.43;;;6.20;;
60344;SDS011;46188;52.324;8.032;2022-12-18T16:23:05;10.02;;;6.70;;
60344;SDS011;46188;52.324;8.032;2022-12-18T16:25:31;9.38;;;5.97;;
60344;SDS011;46188;52.324;8.032;2022-12-18T16:27:57;12.45;;;6.63;;
60344;SDS011;46188;52.324;8.032;2022-12-18T16:30:27;9.60;;;5.85;;
60344;SDS011;46188;52.324;8.032;2022-12-18T16:32:54;10.80;;;5.82;;
60344;SDS011;46188;52.324;8.032;2022-12-18T16:35:20;10.02;;;6.05;;
60344;SDS011;46188;52.324;8.032;2022-12-18T16:37:46;9.88;;;5.70;;
60344;SDS011;46188;52.324;8.032;2022-12-18T16:40:13;11.80;;;5.65;;
60344;SDS011;46188;52.324;8.032;2022-12-18T16:42:40;9.73;;;5.85;;
60344;SDS011;46188;52.324;8.032;2022-12-18T16:45:07;11.43;;;5.63;;
60344;SDS011;46188;52.324;8.032;2022-12-18T16:47:34;11.93;;;6.22;;
60344;SDS011;46188;52.324;8.032;2022-12-18T16:50:00;10.13;;;5.15;;
60344;SDS011;46188;52.324;8.032;2022-12-18T16:52:28;9.27;;;5.45;;
60344;SDS011;46188;52.324;8.032;2022-12-18T16:54:54;10.73;;;6.15;;
60344;SDS011;46188;52.324;8.032;2022-12-18T16:57:20;9.93;;;5.90;;
60344;SDS011;46188;52.324;8.032;2022-12-18T16:59:46;9.52;;;5.15;;
60344;SDS011;46188;52.324;8.032;2022-12-18T17:02:16;9.77;;;5.65;;
60344;SDS011;46188;52.324;8.032;2022-12-18T17:04:44;10.38;;;5.55;;
60344;SDS011;46188;52.324;8.032;2022-12-18T17:07:10;9.90;;;5.72;;
60344;SDS011;46188;52.324;8.032;2022-12-18T17:09:37;12.43;;;6.32;;
60344;SDS011;46188;52.324;8.032;2022-12-18T17:12:03;10.30;;;5.85;;
60344;SDS011;46188;52.324;8.032;2022-12-18T17:14:29;11.02;;;5.72;;
60344;SDS011;46188;52.324;8.032;2022-12-18T17:16:54;11.07;;;5.53;;
60344;SDS011;46188;52.324;8.032;2022-12-18T17:19:21;11.32;;;6.55;;
60344;SDS011;46188;52.324;8.032;2022-12-18T17:21:48;10.70;;;6.53;;
60344;SDS011;46188;52.324;8.032;2022-12-18T17:24:15;11.82;;;6.38;;